sensor_id;sensor_type;location;lat;lon;timestamp;P1;durP1;ratioP1;P2;durP2;ratioP2
4422;SDS011;2224;49.814;8.650;2023-04-03T00:01:04;5.30;;;4.60;;
4422;SDS011;2224;49.814;8.650;2023-04-03T00:03:29;5.10;;;4.70;;
4422;SDS011;2224;49.814;8.650;2023-04-03T00:05:54;5.63;;;4.83;;
4422;SDS011;2224;49.814;8.650;2023-04-03T00:08:20;5.27;;;4.77;;
4422;SDS011;2224;49.814;8.650;2023-04-03T00:10:45;5.33;;;4.93;;
4422;SDS011;2224;49.814;8.650;2023-04-03T00:13:11;4.80;;;4.40;;
4422;SDS011;2224;49.814;8.650;2023-04-03T00:15:36;5.53;;;5.07;;
4422;SDS011;2224;49.814;8.650;2023-04-03T00:18:03;5.60;;;5.10;;
4422;SDS011;2224;49.814;8.650;2023-04-03T00:20:28;5.93;;;5.43;;
4422;SDS011;2224;49.814;8.650;2023-04-03T00:22:54;5.77;;;5.17;;
4422;SDS011;2224;49.814;8.650;2023-04-03T00:25:19;8.30;;;5.90;;
4422;SDS011;2224;49.814;8.650;2023-04-03T00:27:45;7.00;;;5.53;;
4422;SDS011;2224;49.814;8.650;2023-04-03T00:30:11;5.17;;;4.67;;
4422;SDS011;2224;49.814;8.650;2023-04-03T00:32:39;6.23;;;5.27;;
4422;SDS011;2224;49.814;8.650;2023-04-03T00:35:04;4.73;;;4.33;;
4422;SDS011;2224;49.814;8.650;2023-04-03T00:37:30;5.40;;;4.90;;
4422;SDS011;2224;49.814;8.650;2023-04-03T00:39:56;7.00;;;4.90;;
4422;SDS011;2224;49.814;8.650;2023-04-03T00:42:21;4.97;;;4.57;;
4422;SDS011;2224;49.814;8.650;2023-04-03T00:47:13;4.93;;;4.53;;
4422;SDS011;2224;49.814;8.650;2023-04-03T00:49:40;4.70;;;4.30;;
4422;SDS011;2224;49.814;8.650;2023-04-03T00:52:07;4.90;;;4.47;;
4422;SDS011;2224;49.814;8.650;2023-04-03T00:54:35;4.90;;;4.40;;
4422;SDS011;2224;49.814;8.650;2023-04-03T00:57:01;5.07;;;4.53;;
4422;SDS011;2224;49.814;8.650;2023-04-03T00:59:27;5.60;;;4.83;;
4422;SDS011;2224;49.814;8.650;2023-04-03T01:01:55;5.03;;;4.47;;
4422;SDS011;2224;49.814;8.650;2023-04-03T01:04:28;5.60;;;4.80;;
4422;SDS011;2224;49.814;8.650;2023-04-03T01:07:05;9.00;;;4.90;;
4422;SDS011;2224;49.814;8.650;2023-04-03T01:09:32;4.77;;;4.30;;
4422;SDS011;2224;49.814;8.650;2023-04-03T01:14:41;5.10;;;4.70;;
4422;SDS011;2224;49.814;8.650;2023-04-03T01:19:48;5.40;;;4.97;;
4422;SDS011;2224;49.814;8.650;2023-04-03T01:22:24;6.60;;;4.93;;
4422;SDS011;2224;49.814;8.650;2023-04-03T01:24:55;7.20;;;4.77;;
4422;SDS011;2224;49.814;8.650;2023-04-03T01:27:21;5.77;;;5.07;;
4422;SDS011;2224;49.814;8.650;2023-04-03T01:29:46;5.53;;;5.13;;
4422;SDS011;2224;49.814;8.650;2023-04-03T01:32:12;5.87;;;5.33;;
4422;SDS011;2224;49.814;8.650;2023-04-03T01:34:37;5.20;;;4.80;;
4422;SDS011;2224;49.814;8.650;2023-04-03T01:37:02;6.43;;;4.93;;
4422;SDS011;2224;49.814;8.650;2023-04-03T01:39:28;5.37;;;4.87;;
4422;SDS011;2224;49.814;8.650;2023-04-03T01:41:53;5.50;;;4.67;;
4422;SDS011;2224;49.814;8.650;2023-04-03T01:44:19;5.03;;;4.63;;
4422;SDS011;2224;49.814;8.650;2023-04-03T01:46:45;5.43;;;4.90;;
4422;SDS011;2224;49.814;8.650;2023-04-03T01:49:10;5.63;;;5.07;;
4422;SDS011;2224;49.814;8.650;2023-04-03T01:51:35;5.57;;;5.07;;
4422;SDS011;2224;49.814;8.650;2023-04-03T01:54:01;7.40;;;5.77;;
4422;SDS011;2224;49.814;8.650;2023-04-03T01:56:26;4.97;;;4.57;;
4422;SDS011;2224;49.814;8.650;2023-04-03T01:58:51;5.40;;;4.90;;
4422;SDS011;2224;49.814;8.650;2023-04-03T02:01:18;4.90;;;4.50;;
4422;SDS011;2224;49.814;8.650;2023-04-03T02:03:43;4.47;;;4.07;;
4422;SDS011;2224;49.814;8.650;2023-04-03T02:06:08;5.13;;;4.63;;
4422;SDS011;2224;49.814;8.650;2023-04-03T02:08:34;5.40;;;5.00;;
4422;SDS011;2224;49.814;8.650;2023-04-03T02:10:59;5.57;;;4.97;;
4422;SDS011;2224;49.814;8.650;2023-04-03T02:13:25;5.43;;;4.90;;
4422;SDS011;2224;49.814;8.650;2023-04-03T02:15:50;6.20;;;5.57;;
4422;SDS011;2224;49.814;8.650;2023-04-03T02:18:15;5.30;;;4.80;;
4422;SDS011;2224;49.814;8.650;2023-04-03T02:20:41;4.90;;;4.50;;
4422;SDS011;2224;49.814;8.650;2023-04-03T02:23:06;4.87;;;4.43;;
4422;SDS011;2224;49.814;8.650;2023-04-03T02:25:32;7.50;;;4.93;;
4422;SDS011;2224;49.814;8.650;2023-04-03T02:27:58;4.90;;;4.50;;
4422;SDS011;2224;49.814;8.650;2023-04-03T02:30:23;4.10;;;3.80;;
4422;SDS011;2224;49.814;8.650;2023-04-03T02:32:48;6.03;;;5.47;;
4422;SDS011;2224;49.814;8.650;2023-04-03T02:35:14;5.03;;;4.53;;
4422;SDS011;2224;49.814;8.650;2023-04-03T02:37:40;5.80;;;4.87;;
4422;SDS011;2224;49.814;8.650;2023-04-03T02:40:05;5.00;;;4.60;;
4422;SDS011;2224;49.814;8.650;2023-04-03T02:42:32;6.17;;;5.47;;
4422;SDS011;2224;49.814;8.650;2023-04-03T02:44:57;4.93;;;4.43;;
4422;SDS011;2224;49.814;8.650;2023-04-03T02:47:22;4.90;;;4.43;;
4422;SDS011;2224;49.814;8.650;2023-04-03T02:49:48;5.03;;;4.13;;
4422;SDS011;2224;49.814;8.650;2023-04-03T02:52:13;5.20;;;4.47;;
4422;SDS011;2224;49.814;8.650;2023-04-03T02:54:39;4.70;;;4.30;;
4422;SDS011;2224;49.814;8.650;2023-04-03T02:57:04;5.97;;;4.90;;
4422;SDS011;2224;49.814;8.650;2023-04-03T02:59:30;5.63;;;4.43;;
4422;SDS011;2224;49.814;8.650;2023-04-03T03:01:55;5.00;;;4.50;;
4422;SDS011;2224;49.814;8.650;2023-04-03T03:04:21;5.27;;;4.70;;
4422;SDS011;2224;49.814;8.650;2023-04-03T03:06:46;6.13;;;4.80;;
4422;SDS011;2224;49.814;8.650;2023-04-03T03:09:12;8.90;;;4.77;;
4422;SDS011;2224;49.814;8.650;2023-04-03T03:11:38;7.93;;;5.70;;
4422;SDS011;2224;49.814;8.650;2023-04-03T03:14:04;8.23;;;7.33;;
4422;SDS011;2224;49.814;8.650;2023-04-03T03:16:29;5.00;;;4.47;;
4422;SDS011;2224;49.814;8.650;2023-04-03T03:18:55;7.33;;;4.70;;
4422;SDS011;2224;49.814;8.650;2023-04-03T03:21:20;4.87;;;4.40;;
4422;SDS011;2224;49.814;8.650;2023-04-03T03:23:46;5.73;;;4.40;;
4422;SDS011;2224;49.814;8.650;2023-04-03T03:26:11;5.10;;;4.60;;
4422;SDS011;2224;49.814;8.650;2023-04-03T03:28:37;6.30;;;5.50;;
4422;SDS011;2224;49.814;8.650;2023-04-03T03:31:03;5.80;;;5.20;;
4422;SDS011;2224;49.814;8.650;2023-04-03T03:33:29;5.40;;;4.73;;
4422;SDS011;2224;49.814;8.650;2023-04-03T03:35:55;5.67;;;5.17;;
4422;SDS011;2224;49.814;8.650;2023-04-03T03:38:20;6.07;;;5.00;;
4422;SDS011;2224;49.814;8.650;2023-04-03T03:40:49;5.97;;;4.83;;
4422;SDS011;2224;49.814;8.650;2023-04-03T03:43:15;5.20;;;4.33;;
4422;SDS011;2224;49.814;8.650;2023-04-03T03:45:41;7.77;;;5.40;;
4422;SDS011;2224;49.814;8.650;2023-04-03T03:48:07;10.97;;;7.37;;
4422;SDS011;2224;49.814;8.650;2023-04-03T03:50:32;11.57;;;8.20;;
4422;SDS011;2224;49.814;8.650;2023-04-03T03:52:57;13.53;;;8.43;;
4422;SDS011;2224;49.814;8.650;2023-04-03T03:55:23;20.20;;;11.20;;
4422;SDS011;2224;49.814;8.650;2023-04-03T03:57:48;17.03;;;9.43;;
4422;SDS011;2224;49.814;8.650;2023-04-03T04:00:14;15.67;;;10.20;;
4422;SDS011;2224;49.814;8.650;2023-04-03T04:02:39;20.10;;;11.23;;
4422;SDS011;2224;49.814;8.650;2023-04-03T04:05:05;19.00;;;11.47;;
4422;SDS011;2224;49.814;8.650;2023-04-03T04:07:31;17.03;;;10.50;;
4422;SDS011;2224;49.814;8.650;2023-04-03T04:09:56;16.23;;;9.13;;
4422;SDS011;2224;49.814;8.650;2023-04-03T04:12:21;15.73;;;11.03;;
4422;SDS011;2224;49.814;8.650;2023-04-03T04:14:47;11.30;;;8.30;;
4422;SDS011;2224;49.814;8.650;2023-04-03T04:17:12;10.40;;;7.90;;
4422;SDS011;2224;49.814;8.650;2023-04-03T04:19:38;11.23;;;7.87;;
4422;SDS011;2224;49.814;8.650;2023-04-03T04:22:04;10.00;;;7.10;;
4422;SDS011;2224;49.814;8.650;2023-04-03T04:24:29;9.63;;;6.43;;
4422;SDS011;2224;49.814;8.650;2023-04-03T04:26:54;8.77;;;6.33;;
4422;SDS011;2224;49.814;8.650;2023-04-03T04:29:20;9.20;;;5.80;;
4422;SDS011;2224;49.814;8.650;2023-04-03T04:31:45;6.70;;;5.17;;
4422;SDS011;2224;49.814;8.650;2023-04-03T04:34:10;11.57;;;6.07;;
4422;SDS011;2224;49.814;8.650;2023-04-03T04:36:37;7.30;;;4.90;;
4422;SDS011;2224;49.814;8.650;2023-04-03T04:39:03;6.27;;;5.50;;
4422;SDS011;2224;49.814;8.650;2023-04-03T04:41:28;5.33;;;4.17;;
4422;SDS011;2224;49.814;8.650;2023-04-03T04:43:53;10.40;;;7.37;;
4422;SDS011;2224;49.814;8.650;2023-04-03T04:46:19;5.77;;;5.17;;
4422;SDS011;2224;49.814;8.650;2023-04-03T04:48:45;5.40;;;4.40;;
4422;SDS011;2224;49.814;8.650;2023-04-03T04:51:10;5.10;;;4.40;;
4422;SDS011;2224;49.814;8.650;2023-04-03T04:53:36;4.20;;;3.80;;
4422;SDS011;2224;49.814;8.650;2023-04-03T04:56:01;5.83;;;4.37;;
4422;SDS011;2224;49.814;8.650;2023-04-03T04:58:27;4.47;;;3.70;;
4422;SDS011;2224;49.814;8.650;2023-04-03T05:01:02;7.33;;;4.27;;
4422;SDS011;2224;49.814;8.650;2023-04-03T05:03:28;5.47;;;3.53;;
4422;SDS011;2224;49.814;8.650;2023-04-03T05:05:54;5.93;;;4.17;;
4422;SDS011;2224;49.814;8.650;2023-04-03T05:08:19;4.20;;;3.50;;
4422;SDS011;2224;49.814;8.650;2023-04-03T05:10:45;3.87;;;3.43;;
4422;SDS011;2224;49.814;8.650;2023-04-03T05:13:10;5.17;;;3.13;;
4422;SDS011;2224;49.814;8.650;2023-04-03T05:15:35;3.70;;;3.20;;
4422;SDS011;2224;49.814;8.650;2023-04-03T05:18:01;5.30;;;3.40;;
4422;SDS011;2224;49.814;8.650;2023-04-03T05:20:26;4.00;;;3.53;;
4422;SDS011;2224;49.814;8.650;2023-04-03T05:22:51;11.47;;;3.77;;
4422;SDS011;2224;49.814;8.650;2023-04-03T05:25:17;3.93;;;3.40;;
4422;SDS011;2224;49.814;8.650;2023-04-03T05:27:42;4.40;;;2.77;;
4422;SDS011;2224;49.814;8.650;2023-04-03T05:30:08;5.30;;;3.30;;
4422;SDS011;2224;49.814;8.650;2023-04-03T05:32:33;6.10;;;3.03;;
4422;SDS011;2224;49.814;8.650;2023-04-03T05:34:59;6.13;;;3.77;;
4422;SDS011;2224;49.814;8.650;2023-04-03T05:37:24;4.40;;;3.13;;
4422;SDS011;2224;49.814;8.650;2023-04-03T05:39:50;4.03;;;3.50;;
4422;SDS011;2224;49.814;8.650;2023-04-03T05:42:15;6.37;;;3.53;;
4422;SDS011;2224;49.814;8.650;2023-04-03T05:44:41;3.60;;;3.13;;
4422;SDS011;2224;49.814;8.650;2023-04-03T05:47:07;5.67;;;3.13;;
4422;SDS011;2224;49.814;8.650;2023-04-03T05:49:33;4.90;;;3.40;;
4422;SDS011;2224;49.814;8.650;2023-04-03T05:51:58;7.93;;;3.37;;
4422;SDS011;2224;49.814;8.650;2023-04-03T05:54:27;7.33;;;3.63;;
4422;SDS011;2224;49.814;8.650;2023-04-03T05:56:53;8.33;;;3.50;;
4422;SDS011;2224;49.814;8.650;2023-04-03T05:59:19;5.23;;;2.90;;
4422;SDS011;2224;49.814;8.650;2023-04-03T06:01:45;5.30;;;3.27;;
4422;SDS011;2224;49.814;8.650;2023-04-03T06:04:11;3.90;;;3.20;;
4422;SDS011;2224;49.814;8.650;2023-04-03T06:06:44;8.23;;;3.27;;
4422;SDS011;2224;49.814;8.650;2023-04-03T06:09:17;3.97;;;3.23;;
4422;SDS011;2224;49.814;8.650;2023-04-03T06:11:43;3.33;;;3.03;;
4422;SDS011;2224;49.814;8.650;2023-04-03T06:14:09;6.30;;;3.17;;
4422;SDS011;2224;49.814;8.650;2023-04-03T06:16:34;6.90;;;3.37;;
4422;SDS011;2224;49.814;8.650;2023-04-03T06:19:00;7.90;;;5.33;;
4422;SDS011;2224;49.814;8.650;2023-04-03T06:21:25;4.90;;;3.60;;
4422;SDS011;2224;49.814;8.650;2023-04-03T06:23:51;4.33;;;3.67;;
4422;SDS011;2224;49.814;8.650;2023-04-03T06:26:17;3.70;;;3.30;;
4422;SDS011;2224;49.814;8.650;2023-04-03T06:28:42;8.60;;;3.53;;
4422;SDS011;2224;49.814;8.650;2023-04-03T06:31:07;4.07;;;3.20;;
4422;SDS011;2224;49.814;8.650;2023-04-03T06:33:33;4.60;;;3.13;;
4422;SDS011;2224;49.814;8.650;2023-04-03T06:36:00;4.37;;;3.20;;
4422;SDS011;2224;49.814;8.650;2023-04-03T06:38:28;4.57;;;3.37;;
4422;SDS011;2224;49.814;8.650;2023-04-03T06:40:53;5.00;;;3.67;;
4422;SDS011;2224;49.814;8.650;2023-04-03T06:43:19;4.70;;;3.57;;
4422;SDS011;2224;49.814;8.650;2023-04-03T06:45:45;5.70;;;4.07;;
4422;SDS011;2224;49.814;8.650;2023-04-03T06:48:10;3.17;;;2.80;;
4422;SDS011;2224;49.814;8.650;2023-04-03T06:50:36;3.63;;;3.10;;
4422;SDS011;2224;49.814;8.650;2023-04-03T06:53:01;4.03;;;3.63;;
4422;SDS011;2224;49.814;8.650;2023-04-03T06:55:27;4.33;;;3.23;;
4422;SDS011;2224;49.814;8.650;2023-04-03T06:57:52;5.70;;;3.70;;
4422;SDS011;2224;49.814;8.650;2023-04-03T07:00:18;4.77;;;3.40;;
4422;SDS011;2224;49.814;8.650;2023-04-03T07:02:43;6.50;;;3.40;;
4422;SDS011;2224;49.814;8.650;2023-04-03T07:05:09;4.57;;;4.07;;
4422;SDS011;2224;49.814;8.650;2023-04-03T07:07:34;8.13;;;4.00;;
4422;SDS011;2224;49.814;8.650;2023-04-03T07:10:00;4.63;;;3.70;;
4422;SDS011;2224;49.814;8.650;2023-04-03T07:12:25;6.70;;;3.87;;
4422;SDS011;2224;49.814;8.650;2023-04-03T07:14:51;7.20;;;3.37;;
4422;SDS011;2224;49.814;8.650;2023-04-03T07:17:17;5.70;;;3.40;;
4422;SDS011;2224;49.814;8.650;2023-04-03T07:19:42;5.43;;;3.83;;
4422;SDS011;2224;49.814;8.650;2023-04-03T07:22:07;6.40;;;3.40;;
4422;SDS011;2224;49.814;8.650;2023-04-03T07:24:33;7.37;;;4.40;;
4422;SDS011;2224;49.814;8.650;2023-04-03T07:26:58;3.77;;;3.43;;
4422;SDS011;2224;49.814;8.650;2023-04-03T07:29:23;5.50;;;3.57;;
4422;SDS011;2224;49.814;8.650;2023-04-03T07:31:49;5.50;;;3.20;;
4422;SDS011;2224;49.814;8.650;2023-04-03T07:34:14;5.20;;;3.10;;
4422;SDS011;2224;49.814;8.650;2023-04-03T07:36:39;3.90;;;2.90;;
4422;SDS011;2224;49.814;8.650;2023-04-03T07:39:05;5.77;;;3.20;;
4422;SDS011;2224;49.814;8.650;2023-04-03T07:41:31;6.80;;;3.53;;
4422;SDS011;2224;49.814;8.650;2023-04-03T07:43:57;4.33;;;3.20;;
4422;SDS011;2224;49.814;8.650;2023-04-03T07:46:23;6.53;;;3.10;;
4422;SDS011;2224;49.814;8.650;2023-04-03T07:48:48;3.17;;;2.87;;
4422;SDS011;2224;49.814;8.650;2023-04-03T07:51:14;5.70;;;2.87;;
4422;SDS011;2224;49.814;8.650;2023-04-03T07:53:39;10.33;;;3.10;;
4422;SDS011;2224;49.814;8.650;2023-04-03T07:56:05;5.63;;;2.97;;
4422;SDS011;2224;49.814;8.650;2023-04-03T07:58:31;5.30;;;3.00;;
4422;SDS011;2224;49.814;8.650;2023-04-03T08:00:56;3.60;;;3.20;;
4422;SDS011;2224;49.814;8.650;2023-04-03T08:03:22;5.60;;;3.77;;
4422;SDS011;2224;49.814;8.650;2023-04-03T08:05:48;4.07;;;3.10;;
4422;SDS011;2224;49.814;8.650;2023-04-03T08:08:15;5.30;;;3.70;;
4422;SDS011;2224;49.814;8.650;2023-04-03T08:10:42;5.43;;;2.97;;
4422;SDS011;2224;49.814;8.650;2023-04-03T08:13:08;3.80;;;3.40;;
4422;SDS011;2224;49.814;8.650;2023-04-03T08:15:34;5.00;;;3.17;;
4422;SDS011;2224;49.814;8.650;2023-04-03T08:18:01;4.93;;;3.53;;
4422;SDS011;2224;49.814;8.650;2023-04-03T08:20:27;3.47;;;3.17;;
4422;SDS011;2224;49.814;8.650;2023-04-03T08:22:52;3.30;;;3.00;;
4422;SDS011;2224;49.814;8.650;2023-04-03T08:25:18;7.53;;;3.77;;
4422;SDS011;2224;49.814;8.650;2023-04-03T08:27:43;5.00;;;3.10;;
4422;SDS011;2224;49.814;8.650;2023-04-03T08:30:09;3.50;;;3.20;;
4422;SDS011;2224;49.814;8.650;2023-04-03T08:32:35;3.97;;;2.87;;
4422;SDS011;2224;49.814;8.650;2023-04-03T08:35:01;4.50;;;3.80;;
4422;SDS011;2224;49.814;8.650;2023-04-03T08:37:27;3.87;;;2.90;;
4422;SDS011;2224;49.814;8.650;2023-04-03T08:39:53;5.87;;;3.20;;
4422;SDS011;2224;49.814;8.650;2023-04-03T08:45:13;8.30;;;3.30;;
4422;SDS011;2224;49.814;8.650;2023-04-03T08:50:13;5.27;;;2.90;;
4422;SDS011;2224;49.814;8.650;2023-04-03T08:52:42;3.97;;;2.77;;
4422;SDS011;2224;49.814;8.650;2023-04-03T08:58:18;4.20;;;3.10;;
4422;SDS011;2224;49.814;8.650;2023-04-03T09:00:46;4.70;;;3.50;;
4422;SDS011;2224;49.814;8.650;2023-04-03T09:03:15;6.10;;;3.17;;
4422;SDS011;2224;49.814;8.650;2023-04-03T09:21:56;3.50;;;3.20;;
4422;SDS011;2224;49.814;8.650;2023-04-03T09:24:22;4.80;;;3.30;;
4422;SDS011;2224;49.814;8.650;2023-04-03T09:26:48;7.30;;;3.33;;
4422;SDS011;2224;49.814;8.650;2023-04-03T09:29:19;4.33;;;3.07;;
4422;SDS011;2224;49.814;8.650;2023-04-03T09:31:47;5.97;;;3.80;;
4422;SDS011;2224;49.814;8.650;2023-04-03T09:36:48;4.00;;;2.60;;
4422;SDS011;2224;49.814;8.650;2023-04-03T09:39:20;3.00;;;2.50;;
4422;SDS011;2224;49.814;8.650;2023-04-03T09:42:11;3.33;;;2.70;;
4422;SDS011;2224;49.814;8.650;2023-04-03T09:44:44;2.77;;;2.57;;
4422;SDS011;2224;49.814;8.650;2023-04-03T09:47:23;4.23;;;2.73;;
4422;SDS011;2224;49.814;8.650;2023-04-03T09:49:49;4.13;;;3.50;;
4422;SDS011;2224;49.814;8.650;2023-04-03T09:52:24;7.30;;;3.33;;
4422;SDS011;2224;49.814;8.650;2023-04-03T09:54:51;6.43;;;2.87;;
4422;SDS011;2224;49.814;8.650;2023-04-03T09:57:16;2.70;;;2.40;;
4422;SDS011;2224;49.814;8.650;2023-04-03T09:59:58;3.37;;;2.63;;
4422;SDS011;2224;49.814;8.650;2023-04-03T10:05:00;3.80;;;2.67;;
4422;SDS011;2224;49.814;8.650;2023-04-03T10:07:31;5.20;;;3.20;;
4422;SDS011;2224;49.814;8.650;2023-04-03T10:10:03;2.87;;;2.67;;
4422;SDS011;2224;49.814;8.650;2023-04-03T10:12:44;3.10;;;2.50;;
4422;SDS011;2224;49.814;8.650;2023-04-03T10:15:13;2.60;;;2.40;;
4422;SDS011;2224;49.814;8.650;2023-04-03T10:23:21;2.97;;;2.60;;
4422;SDS011;2224;49.814;8.650;2023-04-03T10:36:46;3.77;;;2.73;;
4422;SDS011;2224;49.814;8.650;2023-04-03T10:39:28;2.40;;;2.20;;
4422;SDS011;2224;49.814;8.650;2023-04-03T10:42:05;3.33;;;2.43;;
4422;SDS011;2224;49.814;8.650;2023-04-03T10:44:57;4.37;;;2.40;;
4422;SDS011;2224;49.814;8.650;2023-04-03T10:55:57;2.63;;;2.40;;
4422;SDS011;2224;49.814;8.650;2023-04-03T10:58:30;3.77;;;2.67;;
4422;SDS011;2224;49.814;8.650;2023-04-03T11:01:41;3.10;;;2.80;;
4422;SDS011;2224;49.814;8.650;2023-04-03T11:03:49;2.83;;;2.50;;
4422;SDS011;2224;49.814;8.650;2023-04-03T11:06:21;3.17;;;2.53;;
4422;SDS011;2224;49.814;8.650;2023-04-03T11:11:33;3.20;;;2.80;;
4422;SDS011;2224;49.814;8.650;2023-04-03T11:16:48;3.00;;;2.70;;
4422;SDS011;2224;49.814;8.650;2023-04-03T11:19:20;4.40;;;2.90;;
4422;SDS011;2224;49.814;8.650;2023-04-03T11:22:01;3.73;;;2.80;;
4422;SDS011;2224;49.814;8.650;2023-04-03T11:24:31;4.60;;;3.00;;
4422;SDS011;2224;49.814;8.650;2023-04-03T11:26:58;4.97;;;3.00;;
4422;SDS011;2224;49.814;8.650;2023-04-03T11:29:29;5.73;;;2.93;;
4422;SDS011;2224;49.814;8.650;2023-04-03T11:34:49;2.63;;;2.40;;
4422;SDS011;2224;49.814;8.650;2023-04-03T11:37:23;3.50;;;3.17;;
4422;SDS011;2224;49.814;8.650;2023-04-03T11:40:01;3.47;;;2.70;;
4422;SDS011;2224;49.814;8.650;2023-04-03T11:45:17;4.57;;;2.60;;
4422;SDS011;2224;49.814;8.650;2023-04-03T11:47:58;2.90;;;2.70;;
4422;SDS011;2224;49.814;8.650;2023-04-03T12:05:50;5.77;;;3.10;;
4422;SDS011;2224;49.814;8.650;2023-04-03T12:16:22;3.03;;;2.73;;
4422;SDS011;2224;49.814;8.650;2023-04-03T12:21:20;3.53;;;2.80;;
4422;SDS011;2224;49.814;8.650;2023-04-03T12:24:03;3.47;;;2.37;;
4422;SDS011;2224;49.814;8.650;2023-04-03T12:29:01;7.17;;;2.70;;
4422;SDS011;2224;49.814;8.650;2023-04-03T12:31:32;2.43;;;2.23;;
4422;SDS011;2224;49.814;8.650;2023-04-03T12:40:33;2.77;;;2.40;;
4422;SDS011;2224;49.814;8.650;2023-04-03T12:45:24;3.40;;;2.23;;
4422;SDS011;2224;49.814;8.650;2023-04-03T12:47:52;2.73;;;2.53;;
4422;SDS011;2224;49.814;8.650;2023-04-03T12:53:05;3.60;;;2.63;;
4422;SDS011;2224;49.814;8.650;2023-04-03T12:55:32;3.40;;;2.20;;
4422;SDS011;2224;49.814;8.650;2023-04-03T12:58:12;3.40;;;2.57;;
4422;SDS011;2224;49.814;8.650;2023-04-03T13:01:01;2.30;;;2.10;;
4422;SDS011;2224;49.814;8.650;2023-04-03T13:03:40;2.93;;;2.70;;
4422;SDS011;2224;49.814;8.650;2023-04-03T13:06:10;3.13;;;2.37;;
4422;SDS011;2224;49.814;8.650;2023-04-03T13:08:51;2.60;;;2.23;;
4422;SDS011;2224;49.814;8.650;2023-04-03T13:11:25;2.77;;;2.53;;
4422;SDS011;2224;49.814;8.650;2023-04-03T13:14:04;3.47;;;2.20;;
4422;SDS011;2224;49.814;8.650;2023-04-03T13:16:31;1.80;;;1.70;;
4422;SDS011;2224;49.814;8.650;2023-04-03T13:18:57;2.60;;;2.30;;
4422;SDS011;2224;49.814;8.650;2023-04-03T13:21:24;3.50;;;2.20;;
4422;SDS011;2224;49.814;8.650;2023-04-03T13:23:52;2.10;;;1.90;;
4422;SDS011;2224;49.814;8.650;2023-04-03T13:26:21;3.40;;;2.13;;
4422;SDS011;2224;49.814;8.650;2023-04-03T13:28:47;3.20;;;2.43;;
4422;SDS011;2224;49.814;8.650;2023-04-03T13:33:39;5.83;;;1.77;;
4422;SDS011;2224;49.814;8.650;2023-04-03T13:36:16;2.90;;;2.30;;
4422;SDS011;2224;49.814;8.650;2023-04-03T13:38:43;4.17;;;2.57;;
4422;SDS011;2224;49.814;8.650;2023-04-03T13:41:26;2.87;;;1.97;;
4422;SDS011;2224;49.814;8.650;2023-04-03T13:47:20;3.30;;;2.50;;
4422;SDS011;2224;49.814;8.650;2023-04-03T13:52:41;2.80;;;2.37;;
4422;SDS011;2224;49.814;8.650;2023-04-03T13:55:16;3.43;;;2.50;;
4422;SDS011;2224;49.814;8.650;2023-04-03T13:57:50;4.80;;;2.50;;
4422;SDS011;2224;49.814;8.650;2023-04-03T14:00:19;2.50;;;2.30;;
4422;SDS011;2224;49.814;8.650;2023-04-03T14:02:46;10.27;;;2.23;;
4422;SDS011;2224;49.814;8.650;2023-04-03T14:05:12;3.10;;;2.30;;
4422;SDS011;2224;49.814;8.650;2023-04-03T14:07:37;2.20;;;2.00;;
4422;SDS011;2224;49.814;8.650;2023-04-03T14:10:03;3.00;;;2.10;;
4422;SDS011;2224;49.814;8.650;2023-04-03T14:12:38;2.70;;;2.10;;
4422;SDS011;2224;49.814;8.650;2023-04-03T14:15:14;2.27;;;1.97;;
4422;SDS011;2224;49.814;8.650;2023-04-03T14:17:43;2.30;;;2.10;;
4422;SDS011;2224;49.814;8.650;2023-04-03T14:20:19;2.27;;;2.07;;
4422;SDS011;2224;49.814;8.650;2023-04-03T14:22:47;3.80;;;2.70;;
4422;SDS011;2224;49.814;8.650;2023-04-03T14:25:13;4.70;;;2.60;;
4422;SDS011;2224;49.814;8.650;2023-04-03T14:27:40;2.87;;;2.67;;
4422;SDS011;2224;49.814;8.650;2023-04-03T14:30:09;3.17;;;2.60;;
4422;SDS011;2224;49.814;8.650;2023-04-03T14:32:41;2.77;;;2.40;;
4422;SDS011;2224;49.814;8.650;2023-04-03T14:35:07;2.93;;;2.23;;
4422;SDS011;2224;49.814;8.650;2023-04-03T14:37:32;4.20;;;2.23;;
4422;SDS011;2224;49.814;8.650;2023-04-03T14:39:59;3.90;;;2.50;;
4422;SDS011;2224;49.814;8.650;2023-04-03T14:42:29;2.80;;;2.60;;
4422;SDS011;2224;49.814;8.650;2023-04-03T14:44:56;3.10;;;2.30;;
4422;SDS011;2224;49.814;8.650;2023-04-03T14:47:26;4.20;;;2.63;;
4422;SDS011;2224;49.814;8.650;2023-04-03T14:49:52;3.17;;;2.50;;
4422;SDS011;2224;49.814;8.650;2023-04-03T14:54:43;2.50;;;2.27;;
4422;SDS011;2224;49.814;8.650;2023-04-03T14:57:08;3.70;;;2.63;;
4422;SDS011;2224;49.814;8.650;2023-04-03T14:59:34;3.63;;;2.47;;
4422;SDS011;2224;49.814;8.650;2023-04-03T15:01:59;3.13;;;2.83;;
4422;SDS011;2224;49.814;8.650;2023-04-03T15:04:25;3.07;;;2.10;;
4422;SDS011;2224;49.814;8.650;2023-04-03T15:06:50;5.93;;;2.50;;
4422;SDS011;2224;49.814;8.650;2023-04-03T15:09:20;2.50;;;2.27;;
4422;SDS011;2224;49.814;8.650;2023-04-03T15:11:50;2.50;;;2.30;;
4422;SDS011;2224;49.814;8.650;2023-04-03T15:14:17;2.93;;;2.70;;
4422;SDS011;2224;49.814;8.650;2023-04-03T15:16:42;3.30;;;2.83;;
4422;SDS011;2224;49.814;8.650;2023-04-03T15:19:08;3.37;;;2.50;;
4422;SDS011;2224;49.814;8.650;2023-04-03T15:21:34;3.53;;;2.90;;
4422;SDS011;2224;49.814;8.650;2023-04-03T15:24:00;4.40;;;3.13;;
4422;SDS011;2224;49.814;8.650;2023-04-03T15:26:26;4.33;;;2.83;;
4422;SDS011;2224;49.814;8.650;2023-04-03T15:28:51;3.93;;;3.37;;
4422;SDS011;2224;49.814;8.650;2023-04-03T15:31:16;5.47;;;2.40;;
4422;SDS011;2224;49.814;8.650;2023-04-03T15:33:42;2.77;;;2.30;;
4422;SDS011;2224;49.814;8.650;2023-04-03T15:36:07;3.80;;;1.80;;
4422;SDS011;2224;49.814;8.650;2023-04-03T15:38:33;5.30;;;3.03;;
4422;SDS011;2224;49.814;8.650;2023-04-03T15:40:59;4.33;;;2.80;;
4422;SDS011;2224;49.814;8.650;2023-04-03T15:43:24;4.43;;;2.97;;
4422;SDS011;2224;49.814;8.650;2023-04-03T15:45:49;3.80;;;2.63;;
4422;SDS011;2224;49.814;8.650;2023-04-03T15:48:15;5.90;;;3.73;;
4422;SDS011;2224;49.814;8.650;2023-04-03T15:50:41;3.07;;;2.77;;
4422;SDS011;2224;49.814;8.650;2023-04-03T15:53:07;3.80;;;2.70;;
4422;SDS011;2224;49.814;8.650;2023-04-03T15:55:34;3.80;;;3.30;;
4422;SDS011;2224;49.814;8.650;2023-04-03T15:58:00;4.17;;;3.03;;
4422;SDS011;2224;49.814;8.650;2023-04-03T16:00:26;3.70;;;2.87;;
4422;SDS011;2224;49.814;8.650;2023-04-03T16:02:53;3.40;;;2.37;;
4422;SDS011;2224;49.814;8.650;2023-04-03T16:05:25;6.37;;;3.13;;
4422;SDS011;2224;49.814;8.650;2023-04-03T16:07:50;5.33;;;3.60;;
4422;SDS011;2224;49.814;8.650;2023-04-03T16:10:16;3.30;;;2.57;;
4422;SDS011;2224;49.814;8.650;2023-04-03T16:12:42;4.43;;;2.70;;
4422;SDS011;2224;49.814;8.650;2023-04-03T16:15:08;3.67;;;2.60;;
4422;SDS011;2224;49.814;8.650;2023-04-03T16:17:34;3.60;;;2.93;;
4422;SDS011;2224;49.814;8.650;2023-04-03T16:20:01;4.90;;;3.57;;
4422;SDS011;2224;49.814;8.650;2023-04-03T16:22:27;3.93;;;3.03;;
4422;SDS011;2224;49.814;8.650;2023-04-03T16:24:53;4.87;;;4.33;;
4422;SDS011;2224;49.814;8.650;2023-04-03T16:27:19;6.20;;;3.73;;
4422;SDS011;2224;49.814;8.650;2023-04-03T16:29:45;7.83;;;4.10;;
4422;SDS011;2224;49.814;8.650;2023-04-03T16:32:10;2.50;;;2.17;;
4422;SDS011;2224;49.814;8.650;2023-04-03T16:34:39;2.47;;;1.97;;
4422;SDS011;2224;49.814;8.650;2023-04-03T16:37:05;2.53;;;1.93;;
4422;SDS011;2224;49.814;8.650;2023-04-03T16:39:30;3.00;;;2.57;;
4422;SDS011;2224;49.814;8.650;2023-04-03T16:41:56;7.07;;;2.30;;
4422;SDS011;2224;49.814;8.650;2023-04-03T16:44:21;3.00;;;2.40;;
4422;SDS011;2224;49.814;8.650;2023-04-03T16:46:46;2.30;;;1.87;;
4422;SDS011;2224;49.814;8.650;2023-04-03T16:49:12;2.73;;;2.00;;
4422;SDS011;2224;49.814;8.650;2023-04-03T16:51:37;2.17;;;1.80;;
4422;SDS011;2224;49.814;8.650;2023-04-03T16:54:02;3.83;;;2.00;;
4422;SDS011;2224;49.814;8.650;2023-04-03T16:56:28;2.37;;;2.13;;
4422;SDS011;2224;49.814;8.650;2023-04-03T16:58:53;6.40;;;2.20;;
4422;SDS011;2224;49.814;8.650;2023-04-03T17:01:19;2.30;;;1.90;;
4422;SDS011;2224;49.814;8.650;2023-04-03T17:03:45;2.73;;;1.80;;
4422;SDS011;2224;49.814;8.650;2023-04-03T17:06:11;1.93;;;1.73;;
4422;SDS011;2224;49.814;8.650;2023-04-03T17:08:41;3.87;;;2.20;;
4422;SDS011;2224;49.814;8.650;2023-04-03T17:11:07;5.30;;;2.43;;
4422;SDS011;2224;49.814;8.650;2023-04-03T17:13:32;2.17;;;1.97;;
4422;SDS011;2224;49.814;8.650;2023-04-03T17:15:58;2.37;;;1.53;;
4422;SDS011;2224;49.814;8.650;2023-04-03T17:18:24;2.80;;;1.80;;
4422;SDS011;2224;49.814;8.650;2023-04-03T17:20:51;2.67;;;2.07;;